Time;durP1;ratioP1;P1;durP2;ratioP2;P2;SDS_P1;SDS_P2;PMS_P1;PMS_P2;Temp;Humidity;BMP_temperature;BMP_pressure;BME280_temperature;BME280_humidity;BME280_pressure;Samples;Min_cycle;Max_cycle;Signal;HPM_P1;HPM_P2
2021/05/28 00:02:49;;;;;;;26.48;17.87;;;;;;;18.37;74.33;100485.14;1737901;82;21306;-60
2021/05/28 00:05:58;;;;;;;26.55;16.65;;;;;;;18.31;74.72;100479.11;1731554;80;21397;-60
2021/05/28 00:09:03;;;;;;;31.33;16.77;;;;;;;18.28;74.87;100483.72;1706573;84;21215;-58
2021/05/28 00:12:08;;;;;;;33.25;17.75;;;;;;;18.25;75.02;100486.91;1764017;81;21180;-60
2021/05/28 00:15:16;;;;;;;27.10;17.23;;;;;;;18.23;75.09;100486.83;1763807;81;21354;-58
2021/05/28 00:18:23;;;;;;;34.13;18.55;;;;;;;18.18;75.12;100486.12;1763848;81;21323;-60
2021/05/28 00:21:29;;;;;;;34.45;18.45;;;;;;;18.15;75.12;100488.48;1763725;81;21319;-59
2021/05/28 00:24:35;;;;;;;31.40;18.77;;;;;;;18.10;75.15;100486.38;1763846;81;21394;-59
2021/05/28 00:27:41;;;;;;;29.32;18.37;;;;;;;18.06;75.24;100487.05;1763841;81;21334;-58
2021/05/28 00:30:47;;;;;;;24.47;17.48;;;;;;;18.00;75.38;100485.17;1763736;81;21366;-58
2021/05/28 00:33:53;;;;;;;25.15;16.77;;;;;;;17.94;75.54;100488.27;1763786;81;21343;-58
2021/05/28 00:37:00;;;;;;;24.50;17.27;;;;;;;17.93;75.47;100488.49;1763988;81;21319;-58
2021/05/28 00:40:06;;;;;;;26.90;16.97;;;;;;;17.89;75.02;100482.53;1763793;81;21662;-59
2021/05/28 00:43:12;;;;;;;24.63;17.25;;;;;;;17.85;74.94;100479.91;1763862;81;21351;-59
2021/05/28 00:46:17;;;;;;;26.82;18.57;;;;;;;17.82;75.23;100481.73;1763764;81;21853;-60
2021/05/28 00:49:23;;;;;;;22.62;16.57;;;;;;;17.75;75.35;100479.52;1764038;81;21851;-59
2021/05/28 00:52:28;;;;;;;25.23;16.97;;;;;;;17.70;75.61;100479.33;1763768;81;21675;-59
2021/05/28 00:55:34;;;;;;;22.37;17.15;;;;;;;17.66;75.73;100476.70;1763876;81;21863;-58
2021/05/28 00:58:40;;;;;;;22.10;17.55;;;;;;;17.61;75.65;100474.59;1764047;81;21189;-59
2021/05/28 01:01:44;;;;;;;21.40;16.77;;;;;;;17.58;75.75;100475.55;1763980;81;21386;-59
2021/05/28 01:04:51;;;;;;;23.02;17.85;;;;;;;17.56;75.82;100469.38;1763773;81;21342;-58
2021/05/28 01:07:56;;;;;;;26.55;18.32;;;;;;;17.55;75.89;100463.53;1768735;79;21365;-58
2021/05/28 01:11:03;;;;;;;26.85;17.87;;;;;;;17.51;76.09;100465.02;1769525;81;21247;-58
2021/05/28 01:14:08;;;;;;;22.00;16.30;;;;;;;17.46;76.36;100462.06;1769668;81;21176;-58
2021/05/28 01:17:14;;;;;;;24.60;15.95;;;;;;;17.46;76.66;100462.06;1769550;81;21192;-58
2021/05/28 01:20:21;;;;;;;21.68;16.27;;;;;;;17.47;76.70;100458.23;1769665;81;21887;-59
2021/05/28 01:23:28;;;;;;;21.75;15.28;;;;;;;17.48;76.66;100458.55;1769512;81;21188;-59
2021/05/28 01:26:33;;;;;;;23.30;15.55;;;;;;;17.50;76.17;100456.42;1769707;81;21362;-58
2021/05/28 01:29:41;;;;;;;26.93;15.48;;;;;;;17.48;75.68;100453.01;1769491;81;21354;-59
2021/05/28 01:32:49;;;;;;;18.80;14.70;;;;;;;17.45;75.58;100446.53;1769657;81;21329;-58
2021/05/28 01:35:58;;;;;;;21.02;15.53;;;;;;;17.41;75.44;100447.46;1769510;81;21204;-58
2021/05/28 01:39:02;;;;;;;20.55;14.87;;;;;;;17.36;75.43;100445.05;1769578;81;21381;-59
2021/05/28 01:42:08;;;;;;;21.02;15.50;;;;;;;17.34;75.57;100459.11;1769526;81;21368;-59
2021/05/28 01:45:17;;;;;;;20.77;16.12;;;;;;;17.27;75.50;100461.03;1769685;81;21379;-60
2021/05/28 01:48:23;;;;;;;24.65;16.17;;;;;;;17.23;75.83;100456.16;1769575;81;21362;-60
2021/05/28 01:51:29;;;;;;;20.68;15.83;;;;;;;17.21;76.05;100456.89;1769596;81;21334;-61
2021/05/28 01:54:34;;;;;;;25.10;15.95;;;;;;;17.22;76.00;100458.61;1769597;81;21386;-59
2021/05/28 01:57:39;;;;;;;22.82;15.75;;;;;;;17.20;75.95;100459.36;1769587;81;21666;-58
2021/05/28 02:00:47;;;;;;;21.23;15.88;;;;;;;17.19;76.11;100460.40;1769637;81;21362;-58
2021/05/28 02:03:52;;;;;;;24.43;14.78;;;;;;;17.19;76.08;100457.63;1769639;81;21177;-58
2021/05/28 02:06:59;;;;;;;24.65;16.40;;;;;;;17.20;76.07;100456.59;1767903;81;21228;-58
2021/05/28 02:10:05;;;;;;;20.55;15.68;;;;;;;17.22;76.26;100457.23;1763877;81;21862;-58
2021/05/28 02:13:10;;;;;;;29.05;15.53;;;;;;;17.25;76.49;100460.94;1763885;81;21335;-58
2021/05/28 02:16:16;;;;;;;24.40;16.50;;;;;;;17.27;76.47;100454.11;1764101;81;21335;-58
2021/05/28 02:19:23;;;;;;;31.80;15.90;;;;;;;17.29;76.37;100453.89;1763861;81;21744;-58
2021/05/28 02:22:29;;;;;;;25.57;15.38;;;;;;;17.32;76.38;100457.08;1763820;81;21149;-58
2021/05/28 02:25:34;;;;;;;24.98;16.05;;;;;;;17.35;76.35;100454.40;1763825;81;21406;-59
2021/05/28 02:28:40;;;;;;;20.95;16.25;;;;;;;17.37;76.36;100453.13;1763965;81;21386;-59
2021/05/28 02:31:45;;;;;;;24.63;14.50;;;;;;;17.40;76.31;100453.22;1763844;81;21331;-59
2021/05/28 02:34:50;;;;;;;21.62;15.63;;;;;;;17.43;76.33;100442.56;1763713;81;21268;-59
2021/05/28 02:37:56;;;;;;;18.25;14.43;;;;;;;17.49;76.34;100451.96;1763867;81;21852;-60
2021/05/28 02:41:01;;;;;;;24.27;13.78;;;;;;;17.55;76.49;100460.77;1763912;81;21358;-59
2021/05/28 02:44:08;;;;;;;18.65;13.88;;;;;;;17.60;75.68;100454.05;1763857;81;21200;-58
2021/05/28 02:47:13;;;;;;;21.62;13.55;;;;;;;17.65;75.16;100456.98;1763839;81;21871;-60
2021/05/28 02:50:12;;;;;;;25.00;13.72;;;;;;;17.76;75.03;100453.52;1763922;81;21385;-61
2021/05/28 02:53:17;;;;;;;17.40;13.72;;;;;;;17.83;74.69;100453.82;1763925;81;21332;-60
2021/05/28 02:56:22;;;;;;;25.57;13.62;;;;;;;17.91;74.07;100459.62;1764012;81;21389;-61
2021/05/28 02:59:20;;;;;;;18.10;13.15;;;;;;;18.02;73.51;100453.91;1763983;81;21844;-61
2021/05/28 03:02:27;;;;;;;19.37;12.73;;;;;;;18.08;72.66;100450.25;1763969;81;21327;-61
2021/05/28 03:05:33;;;;;;;22.32;13.25;;;;;;;18.15;72.15;100451.06;1763818;81;21358;-61
2021/05/28 03:08:39;;;;;;;21.00;13.08;;;;;;;18.20;71.30;100446.57;1764650;79;21275;-61
2021/05/28 03:11:46;;;;;;;17.32;13.90;;;;;;;18.30;71.08;100450.23;1769571;81;21235;-61
2021/05/28 03:14:52;;;;;;;19.90;13.13;;;;;;;18.39;70.76;100439.20;1769007;81;21699;-60
2021/05/28 03:17:58;;;;;;;16.93;11.55;;;;;;;18.48;70.34;100452.56;1769066;81;21239;-61
2021/05/28 03:21:36;;;;;;;18.50;11.60;;;;;;;18.57;69.87;100453.98;1769015;81;21209;-61
2021/05/28 03:24:16;;;;;;;15.78;11.97;;;;;;;18.68;69.09;100453.24;1769028;81;21164;-61
2021/05/28 03:27:21;;;;;;;26.35;14.33;;;;;;;18.81;68.90;100456.44;1769152;81;22144;-61
2021/05/28 03:30:26;;;;;;;24.07;13.93;;;;;;;18.96;68.47;100450.84;1769114;81;21381;-61
2021/05/28 03:33:32;;;;;;;31.07;14.68;;;;;;;19.09;68.13;100447.94;1769570;81;21235;-61
2021/05/28 03:36:37;;;;;;;27.22;15.70;;;;;;;19.21;67.57;100443.87;1769629;81;21349;-61
2021/05/28 03:39:43;;;;;;;20.62;13.40;;;;;;;19.33;67.20;100442.05;1769514;81;21370;-59
2021/05/28 03:42:48;;;;;;;19.85;12.03;;;;;;;19.44;67.04;100446.83;1769565;81;21295;-59
2021/05/28 03:45:55;;;;;;;18.80;11.45;;;;;;;19.55;66.38;100445.22;1769504;81;21197;-59
2021/05/28 03:49:01;;;;;;;16.73;10.18;;;;;;;19.67;65.70;100452.54;1769542;81;21180;-59
2021/05/28 03:52:07;;;;;;;15.35;9.63;;;;;;;19.79;64.77;100445.66;1769576;81;21235;-60
2021/05/28 03:55:15;;;;;;;18.85;10.43;;;;;;;19.91;63.73;100450.73;1769385;81;21788;-60
2021/05/28 03:58:20;;;;;;;16.65;10.20;;;;;;;20.02;62.98;100449.92;1739065;82;21394;-59
2021/05/28 04:01:25;;;;;;;18.45;9.75;;;;;;;20.14;62.25;100450.30;1739019;82;21888;-60
2021/05/28 04:04:33;;;;;;;16.97;9.95;;;;;;;20.25;61.87;100449.50;1687031;84;21243;-60
2021/05/28 04:07:38;;;;;;;14.90;8.35;;;;;;;20.33;61.67;100449.69;1738916;82;21375;-59
2021/05/28 04:10:45;;;;;;;12.85;7.47;;;;;;;20.39;61.15;100451.55;1691307;81;21227;-60
2021/05/28 04:13:50;;;;;;;13.83;7.03;;;;;;;20.46;60.72;100441.15;1693804;84;21221;-61
2021/05/28 04:16:57;;;;;;;15.80;7.00;;;;;;;20.54;60.95;100444.98;1693751;84;21215;-60
2021/05/28 04:20:05;;;;;;;10.32;6.22;;;;;;;20.58;60.44;100440.65;1692651;84;21271;-60
2021/05/28 04:23:10;;;;;;;16.12;9.63;;;;;;;20.62;60.30;100436.28;1678815;85;21225;-60
2021/05/28 04:26:15;;;;;;;18.00;11.43;;;;;;;20.60;60.30;100433.75;1683490;85;21366;-59
2021/05/28 04:29:29;;;;;;;19.32;8.43;;;;;;;20.61;60.51;100437.39;1700705;84;21227;-59
2021/05/28 04:32:38;;;;;;;19.90;7.20;;;;;;;20.64;60.63;100436.91;1742103;81;21191;-59
2021/05/28 04:35:42;;;;;;;17.48;7.55;;;;;;;20.67;60.42;100434.50;1703155;84;21212;-59
2021/05/28 04:38:47;;;;;;;17.80;8.03;;;;;;;20.74;60.63;100429.64;1725515;82;21428;-58
2021/05/28 04:41:54;;;;;;;20.23;8.63;;;;;;;20.81;60.81;100432.31;1736108;82;21199;-58
2021/05/28 04:44:59;;;;;;;16.65;6.58;;;;;;;20.90;60.75;100436.42;1731249;82;21848;-59
2021/05/28 04:48:03;;;;;;;13.93;7.30;;;;;;;20.97;59.87;100437.20;1735480;82;21290;-61
2021/05/28 04:51:10;;;;;;;12.95;7.45;;;;;;;21.07;59.48;100435.20;1734844;82;21278;-62
2021/05/28 04:54:18;;;;;;;17.23;7.12;;;;;;;21.15;59.30;100436.23;1734437;82;21855;-61
2021/05/28 04:57:24;;;;;;;17.30;7.10;;;;;;;21.21;59.46;100434.71;1736582;82;21735;-61
2021/05/28 05:00:31;;;;;;;21.57;7.17;;;;;;;21.25;59.43;100437.30;1726059;82;21807;-59
2021/05/28 05:03:36;;;;;;;14.18;6.83;;;;;;;21.34;59.49;100436.39;1720181;83;21188;-60
2021/05/28 05:06:45;;;;;;;30.60;7.60;;;;;;;21.39;59.79;100430.94;1732108;82;21180;-61
2021/05/28 05:09:51;;;;;;;12.80;6.97;;;;;;;21.45;59.62;100426.63;1710867;82;21307;-61
2021/05/28 05:12:57;;;;;;;18.65;8.15;;;;;;;21.55;59.49;100431.01;1681231;80;21204;-61
2021/05/28 05:16:07;;;;;;;14.50;6.30;;;;;;;21.63;59.20;100427.84;1664957;85;21225;-61
2021/05/28 05:19:13;;;;;;;16.77;6.17;;;;;;;21.73;58.36;100432.78;1693927;84;21694;-59
2021/05/28 05:22:18;;;;;;;16.27;6.17;;;;;;;21.78;57.91;100432.38;1741172;82;21598;-61
2021/05/28 05:25:26;;;;;;;17.73;6.30;;;;;;;21.88;57.84;100426.17;1698738;84;21231;-61
2021/05/28 05:28:31;;;;;;;13.22;5.60;;;;;;;21.94;57.54;100422.38;1662432;84;21201;-59
2021/05/28 05:31:36;;;;;;;14.55;5.90;;;;;;;21.99;57.03;100416.34;1677672;85;21757;-60
2021/05/28 05:34:42;;;;;;;15.43;5.53;;;;;;;22.10;56.03;100416.83;1702575;84;21358;-60
2021/05/28 05:37:47;;;;;;;9.75;5.37;;;;;;;22.19;56.00;100415.89;1676734;85;21367;-59
2021/05/28 05:40:53;;;;;;;14.65;5.60;;;;;;;22.30;55.54;100416.91;1734909;81;21259;-60
2021/05/28 05:44:01;;;;;;;14.58;5.83;;;;;;;22.38;55.27;100413.17;1738161;82;21192;-60
2021/05/28 05:47:07;;;;;;;16.95;5.25;;;;;;;22.48;55.14;100406.92;1738160;82;21231;-61
2021/05/28 05:50:15;;;;;;;14.47;4.95;;;;;;;22.59;55.39;100409.68;1727152;81;21211;-59
2021/05/28 05:53:22;;;;;;;22.93;6.00;;;;;;;22.68;55.02;100410.08;1718783;82;21253;-62
2021/05/28 05:56:30;;;;;;;16.05;5.25;;;;;;;22.74;55.00;100406.30;1728675;82;21200;-63
2021/05/28 05:59:41;;;;;;;10.15;4.30;;;;;;;22.84;55.26;100403.66;1708955;84;21214;-61
2021/05/28 06:02:47;;;;;;;13.30;4.30;;;;;;;22.95;55.28;100405.50;1708945;83;21617;-61
2021/05/28 06:05:53;;;;;;;23.38;5.05;;;;;;;23.03;54.86;100403.67;1709550;83;21219;-62
2021/05/28 06:09:00;;;;;;;16.80;4.65;;;;;;;23.15;54.88;100398.84;1710637;81;21440;-62
2021/05/28 06:12:07;;;;;;;33.92;6.60;;;;;;;23.21;54.81;100392.22;1735567;80;21410;-63
2021/05/28 06:15:14;;;;;;;7.05;3.35;;;;;;;23.31;54.92;100399.36;1751427;81;21840;-64
2021/05/28 06:18:19;;;;;;;13.10;4.58;;;;;;;23.37;55.01;100392.19;1756846;81;21802;-61
2021/05/28 06:21:26;;;;;;;18.25;3.77;;;;;;;23.46;54.76;100398.19;1753513;81;21774;-61
2021/05/28 06:24:33;;;;;;;10.30;3.47;;;;;;;23.50;54.26;100390.95;1763231;81;21936;-61
2021/05/28 06:27:40;;;;;;;13.20;4.60;;;;;;;23.47;54.07;100391.48;1763244;81;21233;-62
2021/05/28 06:30:45;;;;;;;9.23;3.30;;;;;;;23.48;54.61;100389.00;1749533;81;21223;-62
2021/05/28 06:33:51;;;;;;;8.03;3.08;;;;;;;23.49;54.87;100385.94;1737200;82;21343;-62
2021/05/28 06:37:00;;;;;;;9.33;3.85;;;;;;;23.55;54.58;100385.44;1737467;82;21343;-61
2021/05/28 06:40:07;;;;;;;28.77;10.13;;;;;;;23.54;54.24;100384.61;1737012;82;21398;-62
2021/05/28 06:43:18;;;;;;;7.75;3.58;;;;;;;23.55;54.21;100384.03;1736983;82;21189;-61
2021/05/28 06:46:25;;;;;;;7.40;2.72;;;;;;;23.62;52.94;100387.49;1737326;82;21185;-62
2021/05/28 06:49:34;;;;;;;9.18;3.58;;;;;;;23.72;52.47;100389.02;1743279;80;22060;-60
2021/05/28 06:52:40;;;;;;;8.68;2.90;;;;;;;23.80;51.55;100382.94;1730465;82;21829;-62
2021/05/28 06:55:47;;;;;;;8.43;2.65;;;;;;;23.90;51.56;100384.47;1761569;81;21595;-61
2021/05/28 06:58:55;;;;;;;6.95;3.10;;;;;;;24.01;52.22;100383.50;1763263;81;21349;-60
2021/05/28 07:02:06;;;;;;;11.75;2.98;;;;;;;24.10;51.69;100387.50;1763602;81;21351;-61
2021/05/28 07:05:13;;;;;;;8.00;2.60;;;;;;;24.18;50.45;100382.01;1763819;81;21373;-62
2021/05/28 07:08:27;;;;;;;10.40;3.50;;;;;;;24.25;50.17;100373.68;1763903;81;21208;-62
2021/05/28 07:11:34;;;;;;;7.20;2.42;;;;;;;24.31;49.60;100375.41;1763646;80;21369;-61
2021/05/28 07:14:48;;;;;;;12.10;3.05;;;;;;;24.37;49.48;100370.14;1730917;82;21358;-60
2021/05/28 07:17:48;;;;;;;7.12;2.60;;;;;;;24.44;49.72;100372.18;1733349;83;21776;-61
2021/05/28 07:20:56;;;;;;;10.03;3.33;;;;;;;24.51;50.11;100372.81;1733622;83;21231;-61
2021/05/28 07:24:02;;;;;;;10.00;2.95;;;;;;;24.60;50.57;100376.80;1733680;83;21583;-60
2021/05/28 07:27:13;;;;;;;8.43;2.75;;;;;;;24.70;50.30;100367.13;1733722;83;21227;-61
2021/05/28 07:30:20;;;;;;;6.78;2.27;;;;;;;24.77;50.20;100363.52;1733679;83;21244;-61
2021/05/28 07:33:29;;;;;;;9.20;2.50;;;;;;;24.84;49.40;100354.34;1737543;81;21229;-61
2021/05/28 07:36:35;;;;;;;7.17;2.10;;;;;;;24.91;48.27;100352.13;1750354;82;21413;-61
2021/05/28 07:39:43;;;;;;;10.60;2.80;;;;;;;25.02;47.55;100349.67;1757942;81;21291;-60
2021/05/28 07:42:48;;;;;;;5.90;2.35;;;;;;;25.08;47.48;100349.98;1755556;81;21194;-61
2021/05/28 07:45:54;;;;;;;6.08;2.12;;;;;;;25.19;46.99;100344.45;1772584;80;21383;-61
2021/05/28 07:49:00;;;;;;;4.00;2.10;;;;;;;25.30;46.37;100346.19;1790013;79;21228;-60
2021/05/28 07:52:07;;;;;;;6.55;2.08;;;;;;;25.38;44.36;100345.70;1790069;79;21788;-61
2021/05/28 07:55:13;;;;;;;6.75;2.20;;;;;;;25.48;43.56;100338.75;1790323;80;21216;-59
2021/05/28 07:58:21;;;;;;;6.25;1.80;;;;;;;25.56;42.25;100336.23;1783466;79;21360;-60
2021/05/28 08:01:28;;;;;;;4.45;1.95;;;;;;;25.61;40.38;100336.84;1790538;80;21331;-63
2021/05/28 08:04:33;;;;;;;6.10;1.90;;;;;;;25.66;40.98;100336.28;1790559;80;21749;-62
2021/05/28 08:07:40;;;;;;;4.95;2.12;;;;;;;25.73;40.67;100330.41;1790609;80;21675;-61
2021/05/28 08:10:46;;;;;;;5.17;2.00;;;;;;;25.79;39.85;100329.30;1775811;79;21244;-59
2021/05/28 08:13:53;;;;;;;8.95;2.72;;;;;;;25.87;38.46;100326.81;1790087;80;21220;-60
2021/05/28 08:17:00;;;;;;;10.25;2.15;;;;;;;25.96;39.96;100331.30;1790613;80;21662;-60
2021/05/28 08:20:07;;;;;;;14.13;7.30;;;;;;;26.05;40.47;100326.88;1790327;79;21201;-61
2021/05/28 08:23:15;;;;;;;6.28;2.50;;;;;;;26.13;40.42;100317.33;1790500;80;21347;-62
2021/05/28 08:26:23;;;;;;;7.70;2.87;;;;;;;26.21;39.96;100322.39;1759335;81;21219;-62
2021/05/28 08:29:30;;;;;;;7.28;2.10;;;;;;;26.28;40.26;100318.76;1732884;82;21201;-59
2021/05/28 08:32:35;;;;;;;4.55;1.60;;;;;;;26.36;39.59;100317.34;1733336;83;21286;-60
2021/05/28 08:35:41;;;;;;;10.18;2.00;;;;;;;26.41;38.87;100314.00;1733185;83;21235;-61
2021/05/28 08:38:48;;;;;;;6.10;1.50;;;;;;;26.47;38.14;100307.80;1733402;83;21165;-60
2021/05/28 08:41:54;;;;;;;5.20;1.98;;;;;;;26.52;37.67;100304.99;1733111;83;21208;-61
2021/05/28 08:45:00;;;;;;;9.88;2.42;;;;;;;26.59;37.61;100310.33;1757008;80;21208;-65
2021/05/28 08:48:07;;;;;;;6.45;2.08;;;;;;;26.64;38.41;100294.33;1744638;81;21192;-63
2021/05/28 08:51:15;;;;;;;6.92;1.85;;;;;;;26.71;37.63;100290.67;1707968;82;21280;-61
2021/05/28 08:54:22;;;;;;;14.55;2.10;;;;;;;26.76;38.07;100296.84;1679697;83;21730;-63
2021/05/28 08:57:28;;;;;;;7.65;2.22;;;;;;;26.82;38.15;100289.53;1699182;83;21350;-60
2021/05/28 09:00:38;;;;;;;6.72;2.12;;;;;;;26.86;37.61;100296.84;1684359;84;21213;-61
2021/05/28 09:03:45;;;;;;;3.85;2.40;;;;;;;26.90;35.71;100294.57;1702294;83;21343;-61
2021/05/28 09:06:54;;;;;;;5.05;1.98;;;;;;;26.97;36.21;100292.88;1725884;83;21875;-61
2021/05/28 09:09:59;;;;;;;4.58;2.47;;;;;;;27.02;34.31;100286.66;1697624;83;21319;-61
2021/05/28 09:13:26;;;;;;;6.28;2.30;;;;;;;27.08;34.50;100284.13;1696391;84;21256;-64
2021/05/28 09:16:35;;;;;;;5.25;1.98;;;;;;;27.17;36.37;100282.40;1697741;81;21221;-60
2021/05/28 09:19:42;;;;;;;2.90;1.98;;;;;;;27.24;35.16;100280.11;1704019;82;21385;-61
2021/05/28 09:22:49;;;;;;;4.30;2.17;;;;;;;27.31;33.74;100268.59;1703571;83;21216;-62
2021/05/28 09:26:09;;;;;;;5.10;2.20;;;;;;;27.40;33.49;100273.91;1704001;83;21729;-63
2021/05/28 09:29:15;;;;;;;3.62;2.35;;;;;;;27.52;34.55;100271.03;1677155;84;21436;-60
2021/05/28 09:32:32;;;;;;;5.80;2.35;;;;;;;27.61;32.26;100267.02;1726869;83;21698;-61
2021/05/28 09:35:38;;;;;;;3.92;2.25;;;;;;;27.63;32.27;100255.77;1740641;82;21966;-61
2021/05/28 09:38:45;;;;;;;6.83;2.90;;;;;;;27.73;32.07;100262.72;1712682;83;21309;-62
2021/05/28 09:42:00;;;;;;;4.80;2.05;;;;;;;27.72;31.10;100262.45;1727051;83;21212;-62
2021/05/28 09:45:10;;;;;;;8.83;2.50;;;;;;;27.72;31.18;100249.80;1718739;83;21382;-61
2021/05/28 09:48:31;;;;;;;5.55;1.87;;;;;;;27.84;33.56;100250.27;1712306;83;21341;-60
2021/05/28 09:51:37;;;;;;;8.05;2.35;;;;;;;27.97;34.00;100255.86;1727161;83;21366;-61
2021/05/28 09:54:41;;;;;;;4.33;1.90;;;;;;;28.00;34.26;100256.68;1721508;81;21196;-61
2021/05/28 09:57:53;;;;;;;5.87;2.00;;;;;;;28.05;33.72;100257.20;1727236;82;21205;-62
2021/05/28 10:00:58;;;;;;;3.42;1.77;;;;;;;28.03;33.07;100245.38;1725697;82;21957;-62
2021/05/28 10:04:17;;;;;;;7.37;2.15;;;;;;;27.99;32.59;100242.90;1699591;82;21426;-62
2021/05/28 10:07:26;;;;;;;5.78;2.42;;;;;;;28.12;32.71;100246.42;1689607;83;21224;-61
2021/05/28 10:10:32;;;;;;;8.80;2.95;;;;;;;28.28;31.78;100237.56;1718591;82;21280;-60
2021/05/28 10:13:39;;;;;;;6.10;2.40;;;;;;;28.41;33.15;100238.86;1707467;84;21217;-59
2021/05/28 10:16:45;;;;;;;7.53;2.72;;;;;;;28.54;33.22;100226.34;1701364;82;21205;-60
2021/05/28 10:19:55;;;;;;;4.12;2.02;;;;;;;28.68;32.52;100223.68;1687397;84;21217;-61
2021/05/28 10:23:05;;;;;;;5.25;2.33;;;;;;;28.85;32.95;100228.27;1699059;82;21220;-59
2021/05/28 10:26:09;;;;;;;4.12;2.02;;;;;;;29.01;32.02;100218.48;1703346;83;22116;-62
2021/05/28 10:29:16;;;;;;;5.33;2.62;;;;;;;29.09;30.61;100216.45;1762795;81;21699;-58
2021/05/28 10:32:21;;;;;;;8.00;2.40;;;;;;;29.19;30.24;100198.81;1764901;80;21200;-59
2021/05/28 10:35:27;;;;;;;6.62;2.60;;;;;;;29.37;30.45;100199.98;1751632;82;21353;-59
2021/05/28 10:38:48;;;;;;;7.58;2.60;;;;;;;29.55;31.27;100206.22;1775685;80;21188;-58
2021/05/28 10:42:01;;;;;;;6.42;2.80;;;;;;;29.71;30.73;100195.56;1782536;80;21414;-59
2021/05/28 10:45:06;;;;;;;7.33;2.22;;;;;;;29.83;29.67;100191.69;1751407;81;22067;-60
2021/05/28 10:48:15;;;;;;;4.47;2.58;;;;;;;29.96;28.94;100191.77;1746695;82;21221;-61
2021/05/28 10:51:32;;;;;;;7.58;2.67;;;;;;;30.01;27.71;100177.56;1762261;80;21224;-60
2021/05/28 10:54:39;;;;;;;8.45;2.60;;;;;;;30.12;29.24;100180.47;1761316;80;21213;-58
2021/05/28 10:57:59;;;;;;;6.17;2.05;;;;;;;30.19;28.83;100171.61;1755271;81;21148;-59
2021/05/28 11:01:05;;;;;;;4.92;2.77;;;;;;;30.19;29.65;100167.37;1747172;81;21241;-59
2021/05/28 11:04:16;;;;;;;3.35;2.20;;;;;;;30.24;29.42;100161.66;1733942;82;21912;-60
2021/05/28 11:07:22;;;;;;;4.60;2.27;;;;;;;30.29;29.91;100160.98;1733943;82;21212;-60
2021/05/28 11:10:34;;;;;;;8.25;3.05;;;;;;;30.45;30.05;100162.94;1758838;81;21885;-61
2021/05/28 11:14:04;;;;;;;9.80;2.95;;;;;;;30.60;29.61;100159.23;1762929;81;21213;-58
2021/05/28 11:17:17;;;;;;;6.30;2.50;;;;;;;30.75;28.80;100158.69;1737138;82;21243;-59
2021/05/28 11:20:25;;;;;;;7.97;2.50;;;;;;;30.92;28.86;100144.77;1756212;80;21741;-58
2021/05/28 11:23:33;;;;;;;4.08;2.75;;;;;;;31.31;27.82;100128.92;1701835;82;21344;-60
2021/05/28 11:26:39;;;;;;;5.15;2.77;;;;;;;31.31;27.82;100128.92;1735527;81;21335;-59
2021/05/28 11:29:46;;;;;;;5.55;2.65;;;;;;;31.61;27.58;100128.75;1700730;82;21358;-58
2021/05/28 11:32:57;;;;;;;5.12;2.72;;;;;;;31.61;27.58;100128.75;1735230;81;21259;-59
2021/05/28 11:36:07;;;;;;;5.05;2.70;;;;;;;31.64;27.99;100123.86;1734958;81;21827;-58
2021/05/28 11:39:19;;;;;;;8.88;2.62;;;;;;;31.74;27.67;100129.28;1757275;80;21212;-60
2021/05/28 11:42:27;;;;;;;6.20;2.60;;;;;;;31.86;27.73;100129.56;1762459;80;21352;-62
2021/05/28 11:45:34;;;;;;;8.88;2.55;;;;;;;31.88;27.05;100125.27;1762802;81;21354;-60
2021/05/28 11:48:40;;;;;;;4.42;2.42;;;;;;;31.63;27.24;100122.20;1763510;80;21765;-61
2021/05/28 11:51:46;;;;;;;5.95;2.80;;;;;;;31.33;27.73;100112.47;1755036;81;21204;-61
2021/05/28 11:54:53;;;;;;;8.50;2.75;;;;;;;31.04;28.93;100113.39;1732100;83;21328;-59
2021/05/28 11:58:05;;;;;;;18.27;3.65;;;;;;;30.68;28.58;100114.44;1732633;83;21389;-59
2021/05/28 12:01:13;;;;;;;4.92;2.60;;;;;;;30.41;28.79;100106.20;1733132;83;21429;-59
2021/05/28 12:04:24;;;;;;;11.93;3.37;;;;;;;30.52;29.43;100112.51;1732727;83;21373;-60
2021/05/28 12:07:32;;;;;;;10.15;3.05;;;;;;;31.00;29.73;100110.10;1732652;83;21834;-61
2021/05/28 12:10:38;;;;;;;9.93;2.65;;;;;;;31.00;29.73;100110.10;1717964;82;21236;-59
2021/05/28 12:13:45;;;;;;;6.33;3.25;;;;;;;31.15;28.08;100106.91;1732745;83;21910;-60
2021/05/28 12:16:52;;;;;;;5.37;2.80;;;;;;;31.26;28.51;100097.03;1733039;82;21244;-58
2021/05/28 12:19:58;;;;;;;7.35;2.90;;;;;;;31.51;29.10;100103.52;1716349;82;21888;-60
2021/05/28 12:23:12;;;;;;;8.15;3.10;;;;;;;31.57;27.84;100096.59;1733729;83;21204;-63
2021/05/28 12:26:23;;;;;;;10.32;3.05;;;;;;;31.49;28.12;100101.61;1733612;83;21272;-59
2021/05/28 12:29:28;;;;;;;5.78;3.25;;;;;;;31.52;28.54;100095.30;1718396;82;21243;-59
2021/05/28 12:32:33;;;;;;;9.90;3.20;;;;;;;31.66;28.50;100094.66;1733162;83;21203;-61
2021/05/28 12:35:41;;;;;;;6.60;2.67;;;;;;;31.86;28.73;100092.17;1732857;83;21255;-60
2021/05/28 12:38:51;;;;;;;7.35;2.92;;;;;;;31.85;27.97;100079.75;1733421;83;21216;-59
2021/05/28 12:41:57;;;;;;;6.45;3.10;;;;;;;31.90;28.30;100081.86;1757303;80;21204;-59
2021/05/28 12:45:17;;;;;;;6.78;2.75;;;;;;;32.09;28.11;100084.48;1773358;80;21951;-59
2021/05/28 12:48:22;;;;;;;5.95;3.10;;;;;;;32.24;28.22;100086.08;1764601;81;21325;-58
2021/05/28 12:51:39;;;;;;;6.47;2.45;;;;;;;32.40;27.65;100085.33;1762200;81;21251;-61
2021/05/28 12:54:46;;;;;;;7.08;3.00;;;;;;;32.49;26.93;100076.27;1757379;80;21777;-60
2021/05/28 12:57:52;;;;;;;5.17;2.58;;;;;;;32.58;27.23;100071.48;1757348;80;21195;-61
2021/05/28 13:01:09;;;;;;;8.55;2.98;;;;;;;32.71;28.03;100065.44;1766575;80;21228;-59
2021/05/28 13:04:14;;;;;;;6.10;2.85;;;;;;;32.65;27.54;100061.90;1757838;80;21456;-58
2021/05/28 13:07:20;;;;;;;8.68;3.35;;;;;;;32.44;27.37;100069.93;1758913;80;21190;-58
2021/05/28 13:10:29;;;;;;;12.65;3.50;;;;;;;32.24;27.80;100063.41;1760930;80;22064;-58
2021/05/28 13:13:34;;;;;;;7.25;2.83;;;;;;;32.21;27.63;100063.45;1762720;81;21239;-60
2021/05/28 13:16:39;;;;;;;5.67;2.70;;;;;;;32.39;28.38;100061.56;1762158;81;21208;-60
2021/05/28 13:19:48;;;;;;;8.30;3.12;;;;;;;32.48;28.03;100046.84;1762415;81;21764;-61
2021/05/28 13:22:55;;;;;;;4.25;2.60;;;;;;;32.50;27.06;100052.45;1759521;80;21199;-61
2021/05/28 13:26:00;;;;;;;9.13;2.62;;;;;;;32.53;28.21;100047.53;1762414;81;21224;-61
2021/05/28 13:29:08;;;;;;;5.22;2.75;;;;;;;32.78;27.39;100046.77;1762356;81;21328;-60
2021/05/28 13:32:13;;;;;;;5.60;2.75;;;;;;;32.89;27.54;100043.89;1747264;81;21267;-60
2021/05/28 13:35:20;;;;;;;7.90;2.60;;;;;;;32.87;27.65;100041.94;1763051;81;21942;-60
2021/05/28 13:38:26;;;;;;;9.40;2.77;;;;;;;32.82;27.98;100037.86;1759271;80;21322;-60
2021/05/28 13:41:35;;;;;;;6.67;2.80;;;;;;;32.53;26.91;100043.28;1733152;82;21369;-60
2021/05/28 13:44:40;;;;;;;5.12;2.40;;;;;;;32.25;26.82;100050.33;1732953;83;21251;-60
2021/05/28 13:47:45;;;;;;;7.08;2.50;;;;;;;32.12;26.87;100041.34;1754423;80;21333;-60
2021/05/28 13:50:51;;;;;;;7.55;2.60;;;;;;;32.06;26.14;100039.81;1713660;80;21254;-60
2021/05/28 13:53:59;;;;;;;7.53;2.83;;;;;;;32.10;26.32;100039.41;1784456;80;22081;-60
2021/05/28 13:57:04;;;;;;;10.60;2.67;;;;;;;31.99;27.20;100044.53;1780931;80;21211;-61
2021/05/28 14:00:12;;;;;;;9.15;2.70;;;;;;;31.86;27.88;100041.77;1758692;81;21374;-59
2021/05/28 14:03:17;;;;;;;5.78;2.60;;;;;;;31.88;28.26;100036.63;1734221;82;21183;-60
2021/05/28 14:06:23;;;;;;;11.57;5.42;;;;;;;31.87;27.29;100027.89;1733824;81;21188;-61
2021/05/28 14:09:31;;;;;;;11.50;5.40;;;;;;;31.75;28.58;100036.94;1735646;80;21848;-61
2021/05/28 14:12:37;;;;;;;20.90;11.38;;;;;;;31.50;28.93;100031.10;1741067;81;21451;-61
2021/05/28 14:15:42;;;;;;;38.23;20.23;;;;;;;31.29;29.06;100031.31;1762092;81;21216;-61
2021/05/28 14:18:48;;;;;;;19.90;10.25;;;;;;;31.07;29.27;100027.05;1755664;81;21395;-60
2021/05/28 14:21:54;;;;;;;15.00;6.50;;;;;;;30.95;29.92;100022.55;1753124;81;21355;-60
2021/05/28 14:25:00;;;;;;;34.30;17.10;;;;;;;30.93;29.63;100017.78;1714210;83;21466;-60